Time;durP1;ratioP1;P1;durP2;ratioP2;P2;SDS_P1;SDS_P2;PMS_P1;PMS_P2;Temp;Humidity;BMP_temperature;BMP_pressure;BME280_temperature;BME280_humidity;BME280_pressure;Samples;Min_cycle;Max_cycle;Signal;HPM_P1;HPM_P2
2021/12/19 00:02:14;;;;;;;14.70;10.00;;;;;;;2.12;65.81;98702.31;6101459;28;20599;-89
2021/12/19 00:11:42;;;;;;;14.53;8.87;;;;;;;2.01;66.66;98671.38;6089688;29;20238;-88
2021/12/19 00:14:44;;;;;;;14.40;9.30;;;;;;;2.02;67.12;98678.31;6123362;28;20332;-89
2021/12/19 00:17:46;;;;;;;15.30;8.93;;;;;;;1.98;67.28;98673.25;6107649;28;20714;-88
2021/12/19 00:20:48;;;;;;;14.40;9.03;;;;;;;1.91;67.52;98667.34;6108074;28;20602;-88
2021/12/19 00:24:11;;;;;;;17.33;10.57;;;;;;;1.92;67.90;98678.63;6109107;28;20650;-90
2021/12/19 00:27:13;;;;;;;12.47;8.87;;;;;;;1.91;67.69;98677.75;6113040;28;20216;-89
2021/12/19 00:30:15;;;;;;;14.37;9.23;;;;;;;1.87;67.96;98686.56;6112828;28;20627;-88
2021/12/19 00:33:17;;;;;;;16.80;10.63;;;;;;;1.82;68.08;98680.63;6108840;28;20755;-88
2021/12/19 00:36:19;;;;;;;14.67;9.40;;;;;;;1.77;68.59;98667.78;6090260;29;20336;-90
2021/12/19 00:39:21;;;;;;;16.43;10.23;;;;;;;1.73;68.87;98673.09;6087309;29;20224;-89
2021/12/19 00:42:36;;;;;;;15.93;10.43;;;;;;;1.67;68.77;98649.88;6091675;28;20223;-89
2021/12/19 00:45:40;;;;;;;14.27;9.10;;;;;;;1.62;69.08;98654.34;6107331;28;20228;-89
2021/12/19 00:48:48;;;;;;;15.50;10.53;;;;;;;1.61;69.39;98656.09;6087914;29;20375;-89
2021/12/19 00:51:50;;;;;;;17.03;10.63;;;;;;;1.53;69.96;98649.41;6085775;28;20715;-88
2021/12/19 00:54:52;;;;;;;19.20;11.50;;;;;;;1.54;70.59;98664.13;6107549;28;20309;-88
2021/12/19 00:57:55;;;;;;;16.33;10.03;;;;;;;1.45;69.99;98650.50;6097146;29;20835;-88
2021/12/19 01:00:58;;;;;;;17.90;11.40;;;;;;;1.46;70.40;98639.19;6106354;28;20231;-88
2021/12/19 01:04:02;;;;;;;16.97;10.83;;;;;;;1.50;70.77;98628.72;6102412;28;20235;-88
2021/12/19 01:07:05;;;;;;;16.00;10.23;;;;;;;1.52;69.86;98625.16;6100600;29;20243;-89
2021/12/19 01:10:08;;;;;;;16.47;10.57;;;;;;;1.46;70.21;98612.34;6101357;29;20581;-88
2021/12/19 01:13:11;;;;;;;16.43;10.57;;;;;;;1.44;70.35;98624.53;6108381;28;20782;-90
2021/12/19 01:16:15;;;;;;;17.60;11.33;;;;;;;1.43;70.29;98597.66;6111643;28;20239;-88
2021/12/19 01:19:18;;;;;;;18.90;10.80;;;;;;;1.53;70.23;98623.41;6110535;28;20265;-88
2021/12/19 01:22:20;;;;;;;17.43;10.63;;;;;;;1.48;70.27;98615.75;6098306;29;20235;-90
2021/12/19 01:25:22;;;;;;;19.63;11.70;;;;;;;1.51;69.96;98592.22;6072077;29;20724;-89
2021/12/19 01:28:24;;;;;;;16.23;9.73;;;;;;;1.53;69.99;98607.78;6109397;28;20235;-88
2021/12/19 01:31:26;;;;;;;16.17;10.60;;;;;;;1.46;70.48;98615.78;6110647;28;20234;-88
2021/12/19 01:34:28;;;;;;;16.97;10.13;;;;;;;1.42;71.13;98618.50;6103965;29;20649;-89
2021/12/19 01:37:30;;;;;;;19.10;11.53;;;;;;;1.36;71.51;98623.91;6126235;28;20242;-91
2021/12/19 01:40:32;;;;;;;20.33;11.97;;;;;;;1.28;72.18;98629.31;6110669;28;20234;-88
2021/12/19 01:43:34;;;;;;;19.13;11.67;;;;;;;1.19;72.74;98632.19;6111694;28;20717;-89
2021/12/19 01:46:37;;;;;;;20.07;11.50;;;;;;;1.11;74.08;98632.34;6109796;28;20235;-89
2021/12/19 01:49:39;;;;;;;19.53;11.80;;;;;;;1.05;74.77;98647.28;6082805;28;20722;-89
2021/12/19 01:52:41;;;;;;;21.07;13.33;;;;;;;0.98;75.39;98636.22;6110814;28;20705;-88
2021/12/19 01:55:45;;;;;;;21.83;13.67;;;;;;;0.91;76.17;98618.19;6105771;28;20592;-88
2021/12/19 01:58:47;;;;;;;19.10;12.33;;;;;;;0.85;76.68;98603.63;6089530;29;20234;-89
2021/12/19 02:01:54;;;;;;;21.40;13.50;;;;;;;0.83;76.95;98615.81;6109535;28;20238;-89
2021/12/19 02:04:56;;;;;;;20.93;12.50;;;;;;;0.83;78.01;98609.75;6099249;29;20735;-89
2021/12/19 02:08:00;;;;;;;19.83;11.43;;;;;;;0.80;78.60;98615.88;6122329;28;20238;-88
2021/12/19 02:11:02;;;;;;;20.00;13.33;;;;;;;0.76;78.84;98621.22;6092843;29;20231;-89
2021/12/19 02:14:05;;;;;;;21.57;12.73;;;;;;;0.70;79.08;98594.47;6116429;28;20227;-89
2021/12/19 02:17:07;;;;;;;22.10;13.87;;;;;;;0.66;79.19;98590.28;6110305;28;20235;-89
2021/12/19 02:20:11;;;;;;;22.07;13.43;;;;;;;0.61;79.83;98580.88;6109429;28;20616;-88
2021/12/19 02:23:13;;;;;;;22.63;13.80;;;;;;;0.58;80.00;98576.66;6114999;28;20548;-89
2021/12/19 02:26:16;;;;;;;24.23;14.67;;;;;;;0.57;80.27;98574.09;6095132;28;20329;-89
2021/12/19 02:29:18;;;;;;;25.50;14.40;;;;;;;0.53;80.55;98551.66;6111208;28;20733;-89
2021/12/19 02:32:21;;;;;;;23.40;14.43;;;;;;;0.50;81.05;98555.19;6089053;29;20239;-89
2021/12/19 02:35:28;;;;;;;27.57;15.60;;;;;;;0.50;81.35;98569.94;6085794;29;20295;-88
2021/12/19 02:48:56;;;;;;;25.77;14.83;;;;;;;0.51;81.46;98574.22;6040021;29;20726;-88
2021/12/19 02:51:59;;;;;;;23.43;14.53;;;;;;;0.50;81.44;98541.38;6108094;28;20239;-88
2021/12/19 02:55:04;;;;;;;21.13;13.53;;;;;;;0.50;81.30;98529.22;6098798;29;20736;-88
2021/12/19 02:58:06;;;;;;;24.10;14.07;;;;;;;0.50;81.72;98531.00;6110869;28;20607;-88
2021/12/19 03:01:14;;;;;;;24.23;13.53;;;;;;;0.48;81.41;98517.19;6092990;28;20796;-88
2021/12/19 03:04:16;;;;;;;26.70;14.70;;;;;;;0.50;81.43;98539.63;6105724;29;20240;-88
2021/12/19 03:07:19;;;;;;;27.57;14.40;;;;;;;0.50;81.50;98529.22;6109053;28;20730;-88
2021/12/19 03:20:24;;;;;;;23.90;12.97;;;;;;;0.53;81.48;98515.31;6087736;29;20232;-87
2021/12/19 03:23:27;;;;;;;21.50;13.30;;;;;;;0.54;81.34;98519.63;6117860;28;20294;-88
2021/12/19 03:26:29;;;;;;;23.00;12.87;;;;;;;0.57;81.53;98511.75;6093990;29;20722;-87
2021/12/19 03:29:31;;;;;;;22.27;13.77;;;;;;;0.56;81.57;98508.31;6096354;28;20345;-89
2021/12/19 03:32:33;;;;;;;20.37;12.20;;;;;;;0.58;81.44;98500.47;6108427;28;20282;-89
2021/12/19 03:35:36;;;;;;;22.60;13.03;;;;;;;0.59;81.57;98497.84;6096457;28;20222;-88
2021/12/19 03:38:42;;;;;;;22.77;13.43;;;;;;;0.60;81.16;98486.53;6108218;28;20329;-89
2021/12/19 03:41:44;;;;;;;22.53;13.37;;;;;;;0.58;81.34;98482.31;6092890;28;20277;-88
2021/12/19 03:44:46;;;;;;;20.27;12.73;;;;;;;0.58;81.15;98480.56;6086393;29;20235;-88
2021/12/19 03:47:49;;;;;;;24.00;13.83;;;;;;;0.58;82.08;98492.69;6109108;28;20322;-88
2021/12/19 03:50:51;;;;;;;22.27;12.47;;;;;;;0.59;81.56;98491.78;6099873;28;20611;-90
2021/12/19 03:53:54;;;;;;;20.10;12.33;;;;;;;0.59;82.00;98484.00;6107816;28;20309;-88
2021/12/19 03:56:56;;;;;;;20.23;12.73;;;;;;;0.60;81.81;98477.91;6108107;28;20231;-88
2021/12/19 03:59:58;;;;;;;20.43;12.57;;;;;;;0.60;81.75;98493.50;6108622;28;20711;-88
2021/12/19 04:03:09;;;;;;;20.73;11.53;;;;;;;0.58;81.71;98462.38;6103285;28;20690;-90
2021/12/19 04:06:11;;;;;;;19.67;11.73;;;;;;;0.60;81.73;98472.72;6103701;28;20244;-90
2021/12/19 04:09:13;;;;;;;17.80;10.33;;;;;;;0.62;81.87;98470.91;6108394;28;20207;-88
2021/12/19 04:12:15;;;;;;;21.23;11.87;;;;;;;0.62;81.53;98483.91;6085529;29;20591;-89
2021/12/19 04:15:18;;;;;;;19.97;11.83;;;;;;;0.62;81.64;98461.38;6089449;28;20207;-89
2021/12/19 04:18:20;;;;;;;17.40;10.30;;;;;;;0.63;81.38;98468.28;6107879;28;20243;-88
2021/12/19 04:21:23;;;;;;;15.60;10.03;;;;;;;0.68;81.50;98460.38;6113607;28;20229;-88
2021/12/19 04:24:26;;;;;;;18.93;10.97;;;;;;;0.74;80.78;98457.59;6112985;28;20258;-89
2021/12/19 04:27:29;;;;;;;14.33;8.77;;;;;;;0.80;80.65;98459.19;6092849;28;20227;-89
2021/12/19 04:30:31;;;;;;;14.80;9.37;;;;;;;0.84;80.74;98455.56;6108830;28;20657;-90
2021/12/19 04:33:36;;;;;;;15.23;9.80;;;;;;;0.84;80.89;98453.84;6108360;28;20226;-89
2021/12/19 04:36:41;;;;;;;14.60;9.50;;;;;;;0.84;80.31;98445.19;6108813;28;20270;-89
2021/12/19 04:39:59;;;;;;;14.80;9.47;;;;;;;0.83;80.36;98431.34;6086550;29;20235;-88
2021/12/19 04:59:52;;;;;;;12.63;8.37;;;;;;;0.98;81.00;98428.31;6097481;29;20707;-89
2021/12/19 05:03:01;;;;;;;12.77;7.57;;;;;;;1.01;80.55;98416.94;6088755;29;20248;-88
2021/12/19 05:06:20;;;;;;;11.33;7.47;;;;;;;1.04;80.84;98407.31;6088706;29;20732;-90
2021/12/19 05:16:21;;;;;;;11.07;7.80;;;;;;;1.08;80.82;98408.94;6100449;28;20236;-89
2021/12/19 05:19:30;;;;;;;14.00;8.73;;;;;;;1.11;81.10;98397.56;6102880;29;20239;-89
2021/12/19 05:22:38;;;;;;;12.23;8.43;;;;;;;1.12;80.50;98383.69;6086573;29;20738;-89
2021/12/19 05:25:41;;;;;;;14.07;8.10;;;;;;;1.12;80.69;98362.88;6091776;29;20249;-88
2021/12/19 05:28:43;;;;;;;12.27;7.60;;;;;;;1.14;80.83;98355.91;6111160;28;20231;-88
2021/12/19 05:31:45;;;;;;;11.20;7.17;;;;;;;1.18;80.80;98347.13;6111327;28;20247;-88
2021/12/19 05:34:48;;;;;;;11.30;6.73;;;;;;;1.20;80.85;98342.69;6106399;28;20232;-91
2021/12/19 05:47:53;;;;;;;10.23;7.10;;;;;;;1.25;80.74;98309.59;6102177;29;20240;-90
2021/12/19 05:50:55;;;;;;;8.27;5.40;;;;;;;1.25;81.10;98321.75;6093798;29;20719;-89
2021/12/19 05:53:57;;;;;;;11.27;6.93;;;;;;;1.26;80.87;98306.13;6118173;28;20318;-88
2021/12/19 05:57:00;;;;;;;8.50;5.80;;;;;;;1.28;80.83;98306.91;6118452;28;20230;-88
2021/12/19 06:00:12;;;;;;;8.30;5.40;;;;;;;1.29;81.14;98295.63;6113738;28;20604;-89
2021/12/19 06:03:14;;;;;;;8.77;6.00;;;;;;;1.32;80.75;98313.69;6109834;29;20743;-89
2021/12/19 06:06:17;;;;;;;8.23;5.67;;;;;;;1.35;80.85;98299.75;6118987;28;20231;-89
2021/12/19 06:09:19;;;;;;;9.27;5.73;;;;;;;1.33;80.41;98310.19;6095589;29;20226;-89
2021/12/19 06:12:21;;;;;;;8.10;5.10;;;;;;;1.35;80.14;98292.81;6117438;28;20245;-90
2021/12/19 06:15:23;;;;;;;8.47;5.63;;;;;;;1.33;80.26;98284.19;6087213;29;20238;-88
2021/12/19 06:18:25;;;;;;;8.23;5.30;;;;;;;1.37;80.51;98280.59;6106688;28;20234;-88
2021/12/19 06:21:27;;;;;;;7.93;5.33;;;;;;;1.46;79.82;98269.88;6102725;28;20314;-88
2021/12/19 06:24:31;;;;;;;8.10;5.20;;;;;;;1.43;79.86;98272.59;6118936;28;20309;-89
2021/12/19 06:27:33;;;;;;;8.97;5.30;;;;;;;1.39;79.88;98262.34;6118284;28;20699;-89
2021/12/19 06:30:35;;;;;;;6.97;5.03;;;;;;;1.39;79.59;98264.97;6097945;28;20230;-89
2021/12/19 06:33:37;;;;;;;7.23;4.13;;;;;;;1.42;79.89;98286.47;6129786;28;20223;-89
2021/12/19 06:36:40;;;;;;;6.50;4.80;;;;;;;1.47;79.54;98260.34;6091567;29;20224;-89
2021/12/19 06:39:43;;;;;;;6.97;4.47;;;;;;;1.52;78.92;98265.38;6104600;29;20239;-89
2021/12/19 06:42:46;;;;;;;7.00;4.27;;;;;;;1.58;78.80;98266.03;6119496;28;20257;-89
2021/12/19 06:45:50;;;;;;;6.93;4.73;;;;;;;1.53;78.72;98244.50;6128776;28;20247;-89
2021/12/19 06:48:52;;;;;;;7.20;4.77;;;;;;;1.61;78.21;98252.88;6101733;28;20231;-88
2021/12/19 06:51:56;;;;;;;8.07;4.67;;;;;;;1.63;78.31;98248.47;6109534;28;20298;-89
2021/12/19 06:54:58;;;;;;;6.73;4.50;;;;;;;1.61;78.18;98242.47;6092297;29;20235;-89
2021/12/19 06:58:00;;;;;;;6.40;4.20;;;;;;;1.61;78.08;98242.47;6112519;28;20249;-88
2021/12/19 07:01:02;;;;;;;6.90;4.53;;;;;;;1.59;78.05;98236.50;6090964;29;20306;-89
2021/12/19 07:04:05;;;;;;;6.03;4.13;;;;;;;1.62;77.64;98231.16;6117105;28;20653;-88
2021/12/19 07:07:08;;;;;;;5.50;4.07;;;;;;;1.67;77.79;98233.63;6116894;28;20235;-89
2021/12/19 07:10:10;;;;;;;5.67;4.10;;;;;;;1.65;77.69;98232.81;6103486;29;20259;-89
2021/12/19 07:13:18;;;;;;;5.87;4.33;;;;;;;1.69;77.86;98211.00;6107834;28;20227;-90
2021/12/19 07:16:20;;;;;;;5.10;4.23;;;;;;;1.72;77.37;98221.28;6123230;28;20298;-88
2021/12/19 07:19:22;;;;;;;6.27;4.13;;;;;;;1.71;77.29;98199.63;6108485;29;20600;-90
2021/12/19 07:22:24;;;;;;;5.73;3.73;;;;;;;1.78;77.32;98211.53;6105620;29;20275;-89
2021/12/19 07:25:26;;;;;;;4.83;3.47;;;;;;;1.76;77.36;98202.91;6111149;28;20612;-89
2021/12/19 07:28:29;;;;;;;4.87;3.47;;;;;;;1.78;77.16;98182.06;6090890;29;20319;-88
2021/12/19 07:31:35;;;;;;;5.40;3.50;;;;;;;1.77;77.19;98177.75;6120130;28;20282;-88
2021/12/19 07:34:38;;;;;;;3.40;3.00;;;;;;;1.76;77.25;98169.09;6100391;29;20840;-89
2021/12/19 07:37:41;;;;;;;6.17;3.20;;;;;;;1.73;77.26;98163.16;6114695;28;20231;-89
2021/12/19 07:40:46;;;;;;;4.97;3.30;;;;;;;1.71;77.95;98146.75;6109746;28;20245;-88
2021/12/19 07:43:49;;;;;;;4.47;3.17;;;;;;;1.78;77.48;98148.22;6124442;28;20695;-89
2021/12/19 07:46:51;;;;;;;3.30;2.77;;;;;;;1.80;77.02;98142.03;6111008;28;20715;-89
2021/12/19 07:49:53;;;;;;;4.17;3.13;;;;;;;1.81;76.90;98148.09;6109955;28;20238;-91
2021/12/19 07:52:56;;;;;;;3.43;2.53;;;;;;;1.79;77.62;98131.72;6085678;29;20267;-88
2021/12/19 07:55:59;;;;;;;4.30;3.03;;;;;;;1.84;77.34;98143.63;6122710;28;20223;-90
2021/12/19 07:59:01;;;;;;;4.07;3.27;;;;;;;1.88;76.83;98146.13;6100359;28;20256;-89
2021/12/19 08:02:04;;;;;;;6.30;2.83;;;;;;;1.88;76.80;98120.09;6098493;28;20310;-88
2021/12/19 08:05:08;;;;;;;3.73;3.13;;;;;;;1.97;76.60;98130.16;6105857;28;20469;-88
2021/12/19 08:08:15;;;;;;;4.97;2.87;;;;;;;1.96;76.66;98131.91;6091887;28;20346;-88
2021/12/19 08:14:39;;;;;;;3.63;2.93;;;;;;;2.14;75.69;98122.53;6085501;29;20663;-89
2021/12/19 08:17:41;;;;;;;3.60;2.40;;;;;;;2.15;75.94;98114.66;6100566;28;20235;-88
2021/12/19 08:20:43;;;;;;;3.53;2.60;;;;;;;2.16;75.83;98141.53;6090927;28;20230;-89
2021/12/19 08:23:46;;;;;;;3.03;2.33;;;;;;;2.14;75.61;98135.53;6087951;29;20367;-89
2021/12/19 08:26:48;;;;;;;3.40;2.17;;;;;;;2.17;75.54;98120.66;6088787;29;20239;-89
2021/12/19 08:29:53;;;;;;;2.70;2.20;;;;;;;2.22;75.40;98149.94;6105886;29;20233;-89
2021/12/19 08:32:56;;;;;;;2.83;2.13;;;;;;;2.33;74.80;98136.50;6116318;28;20236;-89
2021/12/19 08:35:59;;;;;;;3.50;2.00;;;;;;;2.34;74.28;98101.75;6101796;28;20242;-89
2021/12/19 08:39:03;;;;;;;4.00;2.43;;;;;;;2.40;74.08;98108.44;6111794;28;20305;-89
2021/12/19 08:42:06;;;;;;;3.20;2.27;;;;;;;2.40;74.23;98119.72;6106813;29;20220;-89
2021/12/19 08:45:09;;;;;;;3.40;2.00;;;;;;;2.46;73.87;98106.47;6088878;29;20236;-88
2021/12/19 08:48:11;;;;;;;3.47;2.17;;;;;;;2.48;74.01;98109.84;6097853;29;20216;-89
2021/12/19 08:51:13;;;;;;;2.83;2.20;;;;;;;2.57;73.21;98108.63;6110107;28;20306;-90
2021/12/19 08:54:16;;;;;;;3.03;2.33;;;;;;;2.72;72.50;98101.91;6111172;28;20217;-89
2021/12/19 08:57:18;;;;;;;3.83;2.20;;;;;;;2.81;72.79;98085.88;6111366;28;20694;-88
2021/12/19 09:00:21;;;;;;;3.47;2.10;;;;;;;2.90;72.57;98101.13;6111454;28;20250;-89
2021/12/19 09:03:23;;;;;;;3.30;2.00;;;;;;;3.00;72.20;98080.72;6110858;28;20278;-91
2021/12/19 09:06:25;;;;;;;3.30;2.27;;;;;;;3.17;71.61;98107.78;6094823;28;20312;-89
2021/12/19 09:09:28;;;;;;;3.83;2.40;;;;;;;3.28;71.11;98086.44;6111175;28;20231;-89
2021/12/19 09:12:31;;;;;;;3.50;2.43;;;;;;;3.41;70.52;98099.75;6080112;29;20369;-89
2021/12/19 09:15:33;;;;;;;4.20;2.23;;;;;;;3.54;70.10;98109.59;6111157;28;20693;-88
2021/12/19 09:18:35;;;;;;;2.20;2.00;;;;;;;3.64;69.18;98089.13;6109853;28;20614;-88
2021/12/19 09:21:39;;;;;;;3.07;2.47;;;;;;;3.72;68.99;98110.50;6113041;28;20241;-88
2021/12/19 09:24:41;;;;;;;2.70;1.90;;;;;;;3.78;68.65;98102.41;6111920;28;20235;-89
2021/12/19 09:27:43;;;;;;;3.27;2.27;;;;;;;3.89;68.38;98070.56;6110547;28;20241;-89
2021/12/19 09:30:45;;;;;;;2.57;2.10;;;;;;;4.12;67.59;98078.13;6110780;28;20244;-88
2021/12/19 09:33:48;;;;;;;4.10;2.37;;;;;;;4.39;67.67;98079.41;6122832;28;20672;-90
2021/12/19 09:36:50;;;;;;;2.90;2.27;;;;;;;4.44;65.74;98081.81;6103536;29;20730;-89
2021/12/19 09:39:52;;;;;;;2.50;2.20;;;;;;;4.56;65.21;98091.66;6079055;29;20781;-89
2021/12/19 09:43:01;;;;;;;3.47;2.50;;;;;;;4.60;65.65;98074.88;6104099;28;20336;-92
2021/12/19 09:46:03;;;;;;;3.23;2.40;;;;;;;4.79;66.38;98083.50;6093710;29;20243;-89
2021/12/19 09:49:07;;;;;;;3.80;2.30;;;;;;;4.85;64.76;98057.97;6101507;28;20339;-89
2021/12/19 09:52:09;;;;;;;3.53;2.57;;;;;;;4.92;65.47;98065.41;6110196;28;20238;-90
2021/12/19 09:55:18;;;;;;;2.93;2.60;;;;;;;4.91;65.32;98055.03;6110642;28;20254;-91
2021/12/19 09:58:20;;;;;;;3.17;2.23;;;;;;;5.03;65.53;98062.25;6109755;28;20487;-89
2021/12/19 10:01:22;;;;;;;4.03;2.80;;;;;;;5.00;65.32;98044.09;6092179;28;20314;-89
2021/12/19 10:04:43;;;;;;;3.67;2.47;;;;;;;4.93;65.14;98040.09;6101044;29;20605;-89
2021/12/19 10:07:52;;;;;;;3.63;2.47;;;;;;;4.87;65.11;98050.91;6087892;29;20232;-89
2021/12/19 10:10:58;;;;;;;3.53;2.33;;;;;;;4.83;65.24;98013.59;6098267;29;20250;-90
2021/12/19 10:14:01;;;;;;;2.87;2.30;;;;;;;4.96;65.24;98021.66;6090899;28;20278;-89
2021/12/19 10:17:16;;;;;;;3.67;1.87;;;;;;;4.94;64.26;98008.66;6099459;29;20232;-89
2021/12/19 10:20:19;;;;;;;2.43;1.90;;;;;;;4.98;64.91;97975.34;6102063;28;20235;-90
2021/12/19 10:23:23;;;;;;;2.27;1.90;;;;;;;5.12;64.33;97970.22;6108755;28;20239;-89
2021/12/19 10:26:39;;;;;;;2.13;1.63;;;;;;;5.12;64.08;97978.91;6092845;28;20282;-89
2021/12/19 10:29:44;;;;;;;2.30;1.60;;;;;;;5.17;63.79;97963.81;6097285;29;20222;-88
2021/12/19 10:32:56;;;;;;;2.60;1.73;;;;;;;5.18;63.15;97986.44;6109377;28;20778;-89
2021/12/19 10:36:04;;;;;;;3.07;2.07;;;;;;;5.11;63.76;97985.06;6092258;28;20219;-90
2021/12/19 10:39:14;;;;;;;2.13;1.53;;;;;;;5.07;63.31;98014.94;6109762;28;20767;-88
2021/12/19 10:42:16;;;;;;;3.47;1.90;;;;;;;5.00;62.96;97982.16;6108319;28;20210;-89
2021/12/19 10:45:30;;;;;;;3.67;1.80;;;;;;;5.14;63.26;97971.81;6108562;28;20219;-89
2021/12/19 10:48:40;;;;;;;2.40;1.60;;;;;;;5.24;63.16;97973.94;6087993;29;20224;-89
2021/12/19 10:51:43;;;;;;;3.40;2.20;;;;;;;5.15;62.91;97952.59;6104137;28;20234;-89
2021/12/19 10:55:04;;;;;;;2.47;1.43;;;;;;;5.26;63.52;97938.06;6107743;28;20590;-89
2021/12/19 10:58:26;;;;;;;2.23;1.80;;;;;;;5.31;61.98;97931.66;6092867;28;20572;-89
2021/12/19 11:01:30;;;;;;;2.17;1.70;;;;;;;5.28;62.75;97978.09;6078328;29;20599;-89
2021/12/19 11:04:35;;;;;;;1.90;1.60;;;;;;;5.33;61.78;97945.50;6088557;28;20379;-89
2021/12/19 11:07:38;;;;;;;2.97;1.93;;;;;;;5.53;62.39;97926.06;6110048;28;20683;-88
2021/12/19 11:10:41;;;;;;;3.77;1.83;;;;;;;5.65;61.31;97956.81;6105070;28;20679;-89
2021/12/19 11:13:43;;;;;;;1.60;1.50;;;;;;;5.56;62.03;97958.16;6108789;28;20650;-89
2021/12/19 11:16:47;;;;;;;2.30;1.57;;;;;;;5.49;60.88;97951.56;6109942;28;20717;-89
2021/12/19 11:19:52;;;;;;;2.73;1.83;;;;;;;5.60;62.16;97955.34;6107774;28;20714;-89
2021/12/19 11:22:54;;;;;;;2.47;1.67;;;;;;;5.70;61.36;97951.28;6086094;29;20315;-89
2021/12/19 11:25:57;;;;;;;2.47;1.67;;;;;;;5.73;60.62;97938.88;6098960;29;20342;-89
2021/12/19 11:29:03;;;;;;;2.33;1.63;;;;;;;5.78;60.41;97984.00;6100177;28;20774;-89
2021/12/19 11:32:08;;;;;;;2.10;1.70;;;;;;;5.71;61.50;97921.56;6108327;28;20246;-90
2021/12/19 11:35:16;;;;;;;2.43;1.67;;;;;;;5.68;61.23;97935.69;6104675;28;20737;-89
2021/12/19 11:38:20;;;;;;;3.47;1.97;;;;;;;5.62;61.52;97936.03;6100093;29;20319;-89
2021/12/19 11:41:24;;;;;;;2.07;1.80;;;;;;;5.67;61.91;97935.78;6077101;29;20551;-88
2021/12/19 11:44:33;;;;;;;1.90;1.70;;;;;;;5.59;61.94;97930.94;6107702;28;20770;-89
2021/12/19 11:47:52;;;;;;;2.30;1.57;;;;;;;5.49;62.97;97948.94;6122493;28;20729;-91
2021/12/19 11:50:55;;;;;;;2.20;1.80;;;;;;;5.62;62.08;97922.09;6077106;29;20713;-89
2021/12/19 11:54:12;;;;;;;2.13;1.93;;;;;;;5.75;62.47;97939.66;6105981;28;20703;-89
2021/12/19 11:57:34;;;;;;;1.77;1.60;;;;;;;5.73;62.59;97917.94;6094753;28;20699;-89
2021/12/19 12:00:59;;;;;;;2.63;1.90;;;;;;;5.66;61.83;97913.13;6106859;28;20330;-89
2021/12/19 12:04:13;;;;;;;2.10;1.57;;;;;;;5.66;62.25;97942.78;6103132;29;20259;-89
2021/12/19 12:07:15;;;;;;;2.00;1.60;;;;;;;5.66;62.10;97928.84;6116631;28;20818;-90
2021/12/19 12:10:18;;;;;;;1.93;1.70;;;;;;;5.84;62.40;97928.66;6093259;29;20279;-89
2021/12/19 12:13:41;;;;;;;2.50;1.90;;;;;;;5.92;60.67;97923.84;6110837;28;20333;-89
2021/12/19 12:16:56;;;;;;;2.90;2.00;;;;;;;6.04;60.76;97940.63;6107074;28;20246;-90
2021/12/19 12:20:01;;;;;;;2.57;1.87;;;;;;;6.14;59.78;97915.56;6108048;28;20236;-90
2021/12/19 12:23:08;;;;;;;2.90;1.80;;;;;;;6.22;59.61;97915.13;6102638;29;20290;-89
2021/12/19 12:26:47;;;;;;;2.30;1.73;;;;;;;6.28;59.24;97909.53;6085763;28;20283;-89
2021/12/19 12:29:49;;;;;;;2.77;2.07;;;;;;;6.27;59.16;97908.69;6106392;28;20223;-90
2021/12/19 12:32:52;;;;;;;2.77;2.03;;;;;;;6.34;59.83;97903.91;6110944;28;20585;-89
2021/12/19 12:35:55;;;;;;;2.60;1.90;;;;;;;6.33;59.11;97910.09;6087049;29;20687;-89
2021/12/19 12:38:57;;;;;;;2.60;1.90;;;;;;;6.47;58.69;97899.63;6109550;28;20655;-89
2021/12/19 12:42:03;;;;;;;2.83;2.20;;;;;;;6.92;58.24;97901.22;6090264;29;20656;-89
2021/12/19 12:45:05;;;;;;;2.60;2.17;;;;;;;6.90;57.18;97883.88;6083604;28;20600;-89
2021/12/19 12:48:07;;;;;;;3.07;2.20;;;;;;;7.10;56.18;97883.47;6090560;28;20674;-89
2021/12/19 12:51:17;;;;;;;2.87;2.07;;;;;;;7.48;55.38;97894.16;6098960;29;20219;-91
2021/12/19 12:54:25;;;;;;;2.47;2.03;;;;;;;7.22;55.66;97881.84;6105746;28;20214;-90
2021/12/19 12:57:28;;;;;;;2.37;2.07;;;;;;;6.44;57.58;97893.72;6107076;28;20653;-89
2021/12/19 13:00:30;;;;;;;2.60;2.07;;;;;;;5.84;59.60;97885.91;6106756;28;20607;-88
2021/12/19 13:03:33;;;;;;;3.43;2.40;;;;;;;5.16;62.12;97901.97;6106742;28;20249;-89
2021/12/19 13:06:47;;;;;;;2.87;2.33;;;;;;;4.60;63.12;97910.22;6119992;28;20236;-91
2021/12/19 13:09:53;;;;;;;2.37;2.13;;;;;;;4.30;64.89;97910.03;6107919;28;20224;-89
2021/12/19 13:12:55;;;;;;;2.70;2.30;;;;;;;4.10;65.55;97894.56;6120201;28;20243;-89
2021/12/19 13:16:04;;;;;;;4.07;2.70;;;;;;;3.89;65.83;97900.88;6110680;28;20329;-88
2021/12/19 13:19:06;;;;;;;2.93;2.23;;;;;;;3.76;66.28;97887.59;6109982;28;20316;-89
2021/12/19 13:22:27;;;;;;;4.37;2.97;;;;;;;3.66;67.03;97895.03;6103131;29;20350;-89
2021/12/19 13:25:41;;;;;;;4.87;3.00;;;;;;;3.59;67.19;97905.84;6110790;28;20242;-89
2021/12/19 13:28:45;;;;;;;3.70;2.33;;;;;;;3.46;68.11;97891.69;6111627;28;20246;-88
2021/12/19 13:31:48;;;;;;;3.60;2.80;;;;;;;3.36;67.58;97882.63;6091645;29;20234;-89
2021/12/19 13:34:51;;;;;;;3.47;2.50;;;;;;;3.21;68.71;97892.88;6071209;29;20606;-89
2021/12/19 13:38:09;;;;;;;4.43;2.83;;;;;;;3.16;68.73;97874.00;6110372;28;20242;-89
2021/12/19 13:41:11;;;;;;;3.90;2.67;;;;;;;3.12;68.93;97905.50;6094711;28;20826;-89
2021/12/19 13:44:29;;;;;;;3.70;2.67;;;;;;;3.02;69.33;97878.16;6110576;28;20234;-88
2021/12/19 13:47:31;;;;;;;4.07;2.90;;;;;;;2.92;69.56;97902.06;6101499;29;20245;-88
2021/12/19 13:50:40;;;;;;;4.70;3.20;;;;;;;2.84;69.85;97875.50;6094875;29;20582;-88
2021/12/19 13:53:45;;;;;;;4.73;3.17;;;;;;;2.79;70.10;97869.66;6091557;29;20712;-88
2021/12/19 13:56:47;;;;;;;5.87;3.60;;;;;;;2.79;70.18;97867.06;6086187;29;20235;-90
2021/12/19 13:59:49;;;;;;;4.20;3.17;;;;;;;2.71;70.11;97863.94;6093646;28;20233;-89
2021/12/19 14:02:51;;;;;;;4.20;3.33;;;;;;;2.63;70.23;97873.88;6105475;29;20325;-88
2021/12/19 14:05:57;;;;;;;4.47;2.87;;;;;;;2.60;70.46;97864.44;6071466;29;20384;-89
2021/12/19 14:09:10;;;;;;;6.27;3.60;;;;;;;2.51;70.60;97870.06;6085145;29;20222;-89
2021/12/19 14:12:28;;;;;;;6.43;3.30;;;;;;;2.48;70.45;97862.41;6086732;29;20257;-89
2021/12/19 14:15:32;;;;;;;4.57;3.27;;;;;;;2.44;70.54;97866.03;6109153;28;20296;-89
2021/12/19 14:18:41;;;;;;;5.40;3.50;;;;;;;2.37;70.92;97858.59;6109258;28;20236;-91
2021/12/19 14:21:43;;;;;;;5.37;3.40;;;;;;;2.32;71.07;97856.16;6091125;29;20233;-89
2021/12/19 14:24:50;;;;;;;6.17;4.17;;;;;;;2.27;71.76;97852.09;6117208;28;20224;-88
2021/12/19 14:27:52;;;;;;;6.63;3.73;;;;;;;2.18;71.39;97851.59;6109858;28;20316;-89
2021/12/19 14:31:06;;;;;;;6.17;3.63;;;;;;;2.15;71.63;97848.28;6100542;29;20247;-88
2021/12/19 14:34:20;;;;;;;5.60;3.33;;;;;;;2.11;71.98;97852.75;6087069;29;20310;-88
2021/12/19 14:37:28;;;;;;;6.13;3.43;;;;;;;2.10;71.58;97845.84;6090996;28;20334;-88
2021/12/19 14:40:42;;;;;;;5.20;3.90;;;;;;;2.05;71.87;97841.78;6108609;28;20624;-91
2021/12/19 14:43:44;;;;;;;6.83;3.83;;;;;;;2.02;71.83;97841.91;6109370;28;20728;-88
2021/12/19 14:46:48;;;;;;;5.80;3.33;;;;;;;2.00;72.20;97844.56;6105465;28;20247;-88
2021/12/19 14:49:50;;;;;;;5.50;3.57;;;;;;;1.95;72.62;97838.72;6107837;28;20645;-88
2021/12/19 14:53:23;;;;;;;5.47;3.50;;;;;;;1.89;73.17;97849.41;6107987;28;20232;-88
2021/12/19 14:56:28;;;;;;;6.43;3.60;;;;;;;1.82;72.87;97840.16;6104825;29;20315;-88
2021/12/19 14:59:30;;;;;;;7.07;3.60;;;;;;;1.76;73.47;97830.03;6117352;28;20660;-88
2021/12/19 15:02:32;;;;;;;7.53;4.37;;;;;;;1.71;73.42;97842.38;6095178;29;20686;-88
2021/12/19 15:05:35;;;;;;;5.47;3.83;;;;;;;1.67;73.73;97843.44;6112395;28;20700;-89
2021/12/19 15:08:39;;;;;;;6.53;3.70;;;;;;;1.58;73.88;97842.06;6108726;28;20610;-88
2021/12/19 15:11:43;;;;;;;6.37;3.60;;;;;;;1.58;73.66;97838.63;6096865;28;20230;-88
2021/12/19 15:14:45;;;;;;;5.87;3.90;;;;;;;1.51;73.92;97830.19;6109367;28;20227;-89
2021/12/19 15:17:47;;;;;;;6.67;4.27;;;;;;;1.46;74.57;97838.22;6108017;28;20239;-88
2021/12/19 15:20:50;;;;;;;6.90;3.87;;;;;;;1.41;74.80;97837.53;6085815;29;20254;-89
2021/12/19 15:23:53;;;;;;;7.63;4.70;;;;;;;1.40;74.86;97830.63;6104243;28;20379;-88
2021/12/19 15:26:55;;;;;;;7.23;4.33;;;;;;;1.34;75.33;97859.50;6108522;28;20239;-90
2021/12/19 15:29:57;;;;;;;7.97;4.67;;;;;;;1.38;74.66;97824.69;6092302;28;20235;-88
2021/12/19 15:32:59;;;;;;;7.30;4.37;;;;;;;1.32;74.63;97822.31;6091529;28;20290;-88
2021/12/19 15:36:02;;;;;;;6.47;4.10;;;;;;;1.26;74.94;97821.75;6108610;28;20235;-88
2021/12/19 15:39:08;;;;;;;6.43;4.13;;;;;;;1.23;75.63;97825.31;6107842;28;20302;-88